createdAt,value
2018-12-20T00:02:09.319Z,10.17
2018-12-20T00:04:39.615Z,12.87
2018-12-20T00:07:09.631Z,9.17
2018-12-20T00:09:39.896Z,11.93
2018-12-20T00:12:10.125Z,19.03
2018-12-20T00:14:40.543Z,14.13
2018-12-20T00:17:15.861Z,17.03
2018-12-20T00:19:46.125Z,14.53
2018-12-20T00:22:17.295Z,13.87
2018-12-20T00:24:48.118Z,12.67
2018-12-20T00:27:18.552Z,23.33
2018-12-20T00:29:48.646Z,18.03
2018-12-20T00:32:19.417Z,24.57
2018-12-20T00:34:50.709Z,15.87
2018-12-20T00:37:22.699Z,18.20
2018-12-20T00:39:52.962Z,17.07
2018-12-20T00:42:23.133Z,15.67
2018-12-20T00:44:54.120Z,18.97
2018-12-20T00:47:24.552Z,20.60
2018-12-20T00:49:55.246Z,16.23
2018-12-20T00:52:26.832Z,22.70
2018-12-20T00:54:57.708Z,16.47
2018-12-20T00:57:27.882Z,12.13
2018-12-20T00:59:58.028Z,18.53
2018-12-20T01:02:29.268Z,15.30
2018-12-20T01:04:59.656Z,16.57
2018-12-20T01:07:30.547Z,17.60
2018-12-20T01:10:00.736Z,19.40
2018-12-20T01:12:31.081Z,18.10
2018-12-20T01:15:01.304Z,20.40
2018-12-20T01:17:38.826Z,19.10
2018-12-20T01:20:10.462Z,15.77
2018-12-20T01:22:41.259Z,13.13
2018-12-20T01:25:11.411Z,12.93
2018-12-20T01:27:42.058Z,14.87
2018-12-20T01:30:13.520Z,15.17
2018-12-20T01:32:43.571Z,14.47
2018-12-20T01:35:13.779Z,10.27
2018-12-20T01:37:44.171Z,15.27
2018-12-20T01:40:14.308Z,13.83
2018-12-20T01:42:44.368Z,12.87
2018-12-20T01:45:14.715Z,20.97
2018-12-20T01:47:45.310Z,18.23
2018-12-20T01:50:15.784Z,10.33
2018-12-20T01:52:46.118Z,11.33
2018-12-20T01:55:16.944Z,16.57
2018-12-20T01:57:49.388Z,11.33
2018-12-20T02:00:20.037Z,6.97
2018-12-20T02:02:50.183Z,8.70
2018-12-20T02:05:20.178Z,8.37
2018-12-20T02:07:50.102Z,7.87
2018-12-20T02:10:20.580Z,11.30
2018-12-20T02:12:50.451Z,10.77
2018-12-20T02:15:20.456Z,6.17
2018-12-20T02:17:50.479Z,7.63
2018-12-20T02:20:20.622Z,15.20
2018-12-20T02:22:51.049Z,10.83
2018-12-20T02:25:21.148Z,7.13
2018-12-20T02:27:51.288Z,10.17
2018-12-20T02:30:22.277Z,13.67
2018-12-20T02:32:52.631Z,7.77
2018-12-20T02:35:24.176Z,10.43
2018-12-20T02:37:54.321Z,7.83
2018-12-20T02:40:24.499Z,6.17
2018-12-20T02:42:54.767Z,7.03
2018-12-20T02:45:24.885Z,5.93
2018-12-20T02:47:55.188Z,4.13
2018-12-20T02:50:26.005Z,4.13
2018-12-20T02:52:56.416Z,6.50
2018-12-20T02:55:27.240Z,5.00
2018-12-20T02:57:57.809Z,5.43
2018-12-20T03:00:27.877Z,8.60
2018-12-20T03:02:58.580Z,4.23
2018-12-20T03:05:30.018Z,5.13
2018-12-20T03:08:01.132Z,6.93
2018-12-20T03:10:31.573Z,5.90
2018-12-20T03:13:01.703Z,7.40
2018-12-20T03:15:32.650Z,4.97
2018-12-20T03:18:03.215Z,6.83
2018-12-20T03:20:34.030Z,7.67
2018-12-20T03:23:04.042Z,6.17
2018-12-20T03:25:35.042Z,4.40
2018-12-20T03:28:05.640Z,5.33
2018-12-20T03:30:36.787Z,5.20
2018-12-20T03:33:10.363Z,4.87
2018-12-20T03:35:39.379Z,12.77
2018-12-20T03:38:10.215Z,6.23
2018-12-20T03:40:40.453Z,6.27
2018-12-20T03:43:11.788Z,6.30
2018-12-20T03:45:44.060Z,6.03
2018-12-20T03:48:14.839Z,5.60
2018-12-20T03:50:45.509Z,6.27
2018-12-20T03:53:15.719Z,5.93
2018-12-20T03:55:46.693Z,7.67
2018-12-20T03:58:17.459Z,7.73
2018-12-20T04:00:47.420Z,7.07
2018-12-20T04:06:24.694Z,8.70
2018-12-20T04:08:56.667Z,7.73
2018-12-20T04:11:29.346Z,7.50
2018-12-20T04:13:59.428Z,8.13
2018-12-20T04:16:29.736Z,6.00
2018-12-20T04:19:00.668Z,8.63
2018-12-20T04:21:32.410Z,7.63
2018-12-20T04:24:04.884Z,7.07
2018-12-20T04:26:36.795Z,10.47
2018-12-20T04:29:07.493Z,8.83
2018-12-20T04:31:39.544Z,10.40
2018-12-20T04:34:10.829Z,7.87
2018-12-20T04:36:41.673Z,8.17
2018-12-20T04:39:14.158Z,8.23
2018-12-20T04:41:46.122Z,9.03
2018-12-20T04:44:16.513Z,12.37
2018-12-20T04:46:48.195Z,13.83
2018-12-20T04:49:20.079Z,32.90
2018-12-20T04:51:52.437Z,31.10
2018-12-20T04:54:22.664Z,18.67
2018-12-20T04:56:54.145Z,19.90
2018-12-20T04:59:25.896Z,28.70
2018-12-20T05:01:58.716Z,18.80
2018-12-20T05:04:29.260Z,30.17
2018-12-20T05:07:01.887Z,21.50
2018-12-20T05:09:32.711Z,14.20
2018-12-20T05:12:03.990Z,16.13
2018-12-20T05:14:34.196Z,12.53
2018-12-20T05:17:05.039Z,15.40
2018-12-20T05:19:36.764Z,17.77
2018-12-20T05:22:07.825Z,21.00
2018-12-20T05:24:38.024Z,15.77
2018-12-20T05:27:08.683Z,11.77
2018-12-20T05:29:39.859Z,15.10
2018-12-20T05:32:11.339Z,14.03
2018-12-20T05:34:41.807Z,11.70
2018-12-20T05:37:12.892Z,11.10
2018-12-20T05:39:43.242Z,7.70
2018-12-20T05:42:14.895Z,12.27
2018-12-20T05:44:47.627Z,10.07
2018-12-20T05:47:17.512Z,9.70
2018-12-20T05:49:49.044Z,12.53
2018-12-20T05:52:24.515Z,7.67
2018-12-20T05:54:55.383Z,10.70
2018-12-20T05:57:27.216Z,9.47
2018-12-20T05:59:58.273Z,9.90
2018-12-20T06:02:29.603Z,21.17
2018-12-20T06:04:59.930Z,10.33
2018-12-20T06:07:30.817Z,10.47
2018-12-20T06:10:01.583Z,20.30
2018-12-20T06:12:34.000Z,12.97
2018-12-20T06:15:04.728Z,14.43
2018-12-20T06:17:36.849Z,13.03
2018-12-20T06:20:07.418Z,13.43
2018-12-20T06:22:46.232Z,11.13
2018-12-20T06:25:21.309Z,9.90
2018-12-20T06:27:52.395Z,12.03
2018-12-20T06:30:22.604Z,16.13
2018-12-20T06:32:53.219Z,20.30
2018-12-20T06:35:24.330Z,11.10
2018-12-20T06:37:55.482Z,12.00
2018-12-20T06:40:26.962Z,6.70
2018-12-20T06:42:58.172Z,7.77
2018-12-20T06:45:29.218Z,5.93
2018-12-20T06:47:59.244Z,10.93
2018-12-20T06:50:30.492Z,8.00
2018-12-20T06:53:02.246Z,11.57
2018-12-20T06:55:33.388Z,4.30
2018-12-20T06:58:05.290Z,6.13
2018-12-20T07:00:35.944Z,9.87
2018-12-20T07:03:07.140Z,8.93
2018-12-20T07:05:45.945Z,7.57
2018-12-20T07:08:17.628Z,10.70
2018-12-20T07:10:48.660Z,10.07
2018-12-20T07:13:20.286Z,11.87
2018-12-20T07:15:51.520Z,10.23
2018-12-20T07:18:22.753Z,12.97
2018-12-20T07:20:54.516Z,10.60
2018-12-20T07:23:25.350Z,8.43
2018-12-20T07:25:55.906Z,7.40
2018-12-20T07:28:27.506Z,6.53
2018-12-20T07:30:58.176Z,9.37
2018-12-20T07:33:28.380Z,8.03
2018-12-20T07:35:58.991Z,9.37
2018-12-20T07:38:29.170Z,7.80
2018-12-20T07:40:59.904Z,10.17
2018-12-20T07:43:31.152Z,7.67
2018-12-20T07:46:02.668Z,11.00
2018-12-20T07:48:33.876Z,10.13
2018-12-20T07:51:05.911Z,9.20
2018-12-20T07:53:37.458Z,8.13
2018-12-20T07:56:08.378Z,12.60
2018-12-20T07:58:38.357Z,10.17
2018-12-20T08:01:08.767Z,9.83
2018-12-20T08:03:38.967Z,18.20
2018-12-20T08:06:10.631Z,22.83
2018-12-20T08:08:43.283Z,13.50
2018-12-20T08:11:14.220Z,18.40
2018-12-20T08:13:44.466Z,12.27
2018-12-20T08:16:15.367Z,12.70
2018-12-20T08:18:46.311Z,23.00
2018-12-20T08:21:16.404Z,12.50
2018-12-20T08:23:46.985Z,17.43
2018-12-20T08:26:17.231Z,21.63
2018-12-20T08:28:47.550Z,17.27
2018-12-20T08:31:18.031Z,14.57
2018-12-20T08:33:48.293Z,17.23
2018-12-20T08:36:18.723Z,20.20
2018-12-20T08:38:48.655Z,13.83
2018-12-20T08:41:18.825Z,13.63
2018-12-20T08:43:49.275Z,19.67
2018-12-20T08:46:20.410Z,17.63
2018-12-20T08:48:51.320Z,22.17
2018-12-20T08:51:22.063Z,14.50
2018-12-20T08:53:52.187Z,14.17
2018-12-20T08:56:23.119Z,26.23
2018-12-20T08:58:53.336Z,11.67
2018-12-20T09:01:24.500Z,22.37
2018-12-20T09:03:54.607Z,24.00
2018-12-20T09:06:25.218Z,20.30
2018-12-20T09:08:55.685Z,24.27
2018-12-20T09:11:27.695Z,26.97
2018-12-20T09:13:57.673Z,17.00
2018-12-20T09:16:28.734Z,21.73
2018-12-20T09:18:58.982Z,17.27
2018-12-20T09:21:30.734Z,9.70
2018-12-20T09:24:01.179Z,30.60
2018-12-20T09:26:31.326Z,19.63
2018-12-20T09:29:01.520Z,17.93
2018-12-20T09:31:32.108Z,12.23
2018-12-20T09:34:02.182Z,21.90
2018-12-20T09:36:34.822Z,11.20
2018-12-20T09:39:08.763Z,10.17
2018-12-20T09:41:39.700Z,16.57
2018-12-20T09:44:11.867Z,10.80
2018-12-20T09:46:43.420Z,15.53
2018-12-20T09:49:14.969Z,11.37
2018-12-20T09:51:46.371Z,10.33
2018-12-20T09:54:16.500Z,12.63
2018-12-20T09:56:46.967Z,9.63
2018-12-20T09:59:17.004Z,9.50
2018-12-20T10:01:48.841Z,10.00
2018-12-20T10:04:21.058Z,10.87
2018-12-20T10:06:51.229Z,12.33
2018-12-20T10:09:21.768Z,18.93
2018-12-20T10:11:53.465Z,18.07
2018-12-20T10:14:23.896Z,26.00
2018-12-20T10:16:55.614Z,15.40
2018-12-20T10:19:27.262Z,14.40
2018-12-20T10:21:58.822Z,16.97
2018-12-20T10:24:28.897Z,17.60
2018-12-20T10:26:59.455Z,11.43
2018-12-20T10:29:30.356Z,11.07
2018-12-20T10:32:00.614Z,16.60
2018-12-20T10:34:32.587Z,10.97
2018-12-20T10:37:04.141Z,12.57
2018-12-20T10:39:34.889Z,8.40
2018-12-20T10:42:05.643Z,6.90
2018-12-20T10:44:36.586Z,8.07
2018-12-20T10:47:13.140Z,6.87
2018-12-20T10:49:45.310Z,8.77
2018-12-20T10:52:16.282Z,8.90
2018-12-20T10:54:47.105Z,10.27
2018-12-20T10:57:19.347Z,10.57
2018-12-20T10:59:50.898Z,11.00
2018-12-20T11:02:26.653Z,8.10
2018-12-20T11:05:03.029Z,11.00
2018-12-20T11:07:38.852Z,8.33
2018-12-20T11:10:15.565Z,11.37
2018-12-20T11:12:48.976Z,11.33
2018-12-20T11:15:19.354Z,13.33
2018-12-20T11:17:49.549Z,11.17
2018-12-20T11:20:20.422Z,11.80
2018-12-20T11:22:51.187Z,7.63
2018-12-20T11:25:22.879Z,8.83
2018-12-20T11:27:53.289Z,11.93
2018-12-20T11:30:23.412Z,7.23
2018-12-20T11:32:54.190Z,8.37
2018-12-20T11:35:24.358Z,9.00
2018-12-20T11:37:54.700Z,6.73
2018-12-20T11:40:24.955Z,8.50
2018-12-20T11:42:56.229Z,9.63
2018-12-20T11:45:28.273Z,10.43
2018-12-20T11:47:58.543Z,8.97
2018-12-20T11:50:29.289Z,7.97
2018-12-20T11:52:59.245Z,10.90
2018-12-20T11:55:29.770Z,10.67
2018-12-20T11:57:59.852Z,16.97
2018-12-20T12:00:32.511Z,17.60
2018-12-20T12:03:03.622Z,11.00
2018-12-20T12:05:35.348Z,17.47
2018-12-20T12:08:05.353Z,10.93
2018-12-20T12:10:35.542Z,14.03
2018-12-20T12:13:05.879Z,9.93
2018-12-20T12:15:36.177Z,9.93
2018-12-20T12:18:08.499Z,14.17
2018-12-20T12:20:39.114Z,7.87
2018-12-20T12:23:09.183Z,10.17
2018-12-20T12:25:39.652Z,11.03
2018-12-20T12:28:11.766Z,8.07
2018-12-20T12:30:42.232Z,11.37
2018-12-20T12:33:13.921Z,10.87
2018-12-20T12:35:45.629Z,10.47
2018-12-20T12:38:16.421Z,6.90
2018-12-20T12:40:47.078Z,7.47
2018-12-20T12:43:18.225Z,6.07
2018-12-20T12:45:49.169Z,7.03
2018-12-20T12:48:19.484Z,6.17
2018-12-20T12:50:50.835Z,5.80
2018-12-20T12:53:21.808Z,5.80
2018-12-20T12:55:52.383Z,7.47
2018-12-20T12:58:22.794Z,7.90
2018-12-20T13:00:53.849Z,6.50
2018-12-20T13:03:25.917Z,7.40
2018-12-20T13:05:56.733Z,3.40
2018-12-20T13:08:27.008Z,5.97
2018-12-20T13:10:58.416Z,5.90
2018-12-20T13:13:28.571Z,7.13
2018-12-20T13:15:59.899Z,4.93
2018-12-20T13:18:30.500Z,8.10
2018-12-20T13:21:01.269Z,6.83
2018-12-20T13:23:31.653Z,6.57
2018-12-20T13:26:01.833Z,7.00
2018-12-20T13:28:32.521Z,5.47
2018-12-20T13:31:05.035Z,6.80
2018-12-20T13:33:37.816Z,7.10
2018-12-20T13:36:08.727Z,8.23
2018-12-20T13:38:38.953Z,7.07
2018-12-20T13:41:10.042Z,7.53
2018-12-20T13:43:40.568Z,7.13
2018-12-20T13:46:10.739Z,5.83
2018-12-20T13:48:40.776Z,9.30
2018-12-20T13:51:13.064Z,5.30
2018-12-20T13:53:44.113Z,6.03
2018-12-20T13:56:15.343Z,7.00
2018-12-20T13:58:46.594Z,5.97
2018-12-20T14:01:16.792Z,5.43
2018-12-20T14:03:47.627Z,7.80
2018-12-20T14:06:18.868Z,6.60
2018-12-20T14:08:51.240Z,5.67
2018-12-20T14:11:22.288Z,6.97
2018-12-20T14:13:53.100Z,11.27
2018-12-20T14:16:23.970Z,10.27
2018-12-20T14:18:54.320Z,18.13
2018-12-20T14:21:24.602Z,8.73
2018-12-20T14:23:54.609Z,14.07
2018-12-20T14:26:24.684Z,13.27
2018-12-20T14:28:56.186Z,10.33
2018-12-20T14:31:27.211Z,11.23
2018-12-20T14:33:57.724Z,10.57
2018-12-20T14:36:28.186Z,7.17
2018-12-20T14:38:58.084Z,6.87
2018-12-20T14:41:28.238Z,9.03
2018-12-20T14:43:59.115Z,7.43
2018-12-20T14:46:29.877Z,8.27
2018-12-20T14:49:00.512Z,8.40
2018-12-20T14:51:31.489Z,8.13
2018-12-20T14:54:01.543Z,6.30
2018-12-20T14:56:32.793Z,8.80
2018-12-20T14:59:03.421Z,10.80
2018-12-20T15:01:33.908Z,10.23
2018-12-20T15:04:06.631Z,8.07
2018-12-20T15:06:37.467Z,8.53
2018-12-20T15:09:09.139Z,9.33
2018-12-20T15:11:39.937Z,9.43
2018-12-20T15:14:11.419Z,9.77
2018-12-20T15:16:42.380Z,11.13
2018-12-20T15:19:13.655Z,10.00
2018-12-20T15:21:43.780Z,9.23
2018-12-20T15:24:13.780Z,8.90
2018-12-20T15:26:43.969Z,12.97
2018-12-20T15:29:14.607Z,11.57
2018-12-20T15:31:53.162Z,11.30
2018-12-20T15:34:17.813Z,10.97
2018-12-20T15:36:47.941Z,11.27
2018-12-20T15:39:18.292Z,13.27
2018-12-20T15:41:48.913Z,12.03
2018-12-20T15:44:19.100Z,11.20
2018-12-20T15:46:49.618Z,13.77
2018-12-20T15:49:20.384Z,13.93
2018-12-20T15:51:51.060Z,14.60
2018-12-20T15:54:21.523Z,13.63
2018-12-20T15:56:52.611Z,12.10
2018-12-20T15:59:22.809Z,15.40
2018-12-20T16:01:53.925Z,16.17
2018-12-20T16:04:26.964Z,15.20
2018-12-20T16:06:58.902Z,12.17
2018-12-20T16:09:29.122Z,10.77
2018-12-20T16:12:00.397Z,13.60
2018-12-20T16:14:31.161Z,15.10
2018-12-20T16:17:02.188Z,13.30
2018-12-20T16:19:32.582Z,10.77
2018-12-20T16:22:02.816Z,13.70
2018-12-20T16:24:33.037Z,14.53
2018-12-20T16:27:04.115Z,14.97
2018-12-20T16:29:34.403Z,19.67
2018-12-20T16:32:05.342Z,17.10
2018-12-20T16:34:37.018Z,12.77
2018-12-20T16:37:07.249Z,25.37
2018-12-20T16:39:37.971Z,18.20
2018-12-20T16:42:07.868Z,11.40
2018-12-20T16:44:38.737Z,11.03
2018-12-20T16:47:09.087Z,13.67
2018-12-20T16:49:39.896Z,19.23
2018-12-20T16:52:09.999Z,15.10
2018-12-20T16:54:40.753Z,18.00
2018-12-20T16:57:11.805Z,18.80
2018-12-20T16:59:42.459Z,24.03
2018-12-20T17:02:13.236Z,28.07
2018-12-20T17:04:44.255Z,18.93
2018-12-20T17:07:14.199Z,17.50
2018-12-20T17:09:46.466Z,14.80
2018-12-20T17:12:17.198Z,25.13
2018-12-20T17:14:47.644Z,15.17
2018-12-20T17:17:18.167Z,18.43
2018-12-20T17:19:49.427Z,9.57
2018-12-20T17:22:23.987Z,14.53
2018-12-20T17:24:54.328Z,10.30
2018-12-20T17:27:26.384Z,16.27
2018-12-20T17:29:56.273Z,13.90
2018-12-20T17:32:26.406Z,16.20
2018-12-20T17:34:56.434Z,12.73
2018-12-20T17:37:26.387Z,10.60
2018-12-20T17:39:58.426Z,12.60
2018-12-20T17:42:29.084Z,17.90
2018-12-20T17:44:59.247Z,10.47
2018-12-20T17:47:29.360Z,13.77
2018-12-20T17:49:59.829Z,10.60
2018-12-20T17:52:31.280Z,10.73
2018-12-20T17:55:01.440Z,12.80
2018-12-20T17:57:32.508Z,12.47
2018-12-20T18:00:02.800Z,9.67
2018-12-20T18:02:33.494Z,11.90
2018-12-20T18:05:07.155Z,10.37
2018-12-20T18:07:37.880Z,13.20
2018-12-20T18:10:10.800Z,12.90
2018-12-20T18:12:41.092Z,10.50
2018-12-20T18:15:13.366Z,18.53
2018-12-20T18:17:44.614Z,20.47
2018-12-20T18:20:14.855Z,12.67
2018-12-20T18:22:44.955Z,17.30
2018-12-20T18:25:16.324Z,13.53
2018-12-20T18:27:46.741Z,17.27
2018-12-20T18:30:17.831Z,8.43
2018-12-20T18:32:48.654Z,13.37
2018-12-20T18:35:18.797Z,7.23
2018-12-20T18:37:50.203Z,12.53
2018-12-20T18:40:21.025Z,13.30
2018-12-20T18:42:51.847Z,9.93
2018-12-20T18:45:22.607Z,9.53
2018-12-20T18:47:53.115Z,15.43
2018-12-20T18:50:24.045Z,14.43
2018-12-20T18:52:54.197Z,17.00
2018-12-20T18:55:25.222Z,16.40
2018-12-20T18:57:55.353Z,13.87
2018-12-20T19:00:25.638Z,9.80
2018-12-20T19:02:55.735Z,17.83
2018-12-20T19:05:26.121Z,16.80
2018-12-20T19:07:57.469Z,11.97
2018-12-20T19:10:29.249Z,14.63
2018-12-20T19:12:59.353Z,15.23
2018-12-20T19:15:30.586Z,24.77
2018-12-20T19:18:02.820Z,23.80
2018-12-20T19:20:32.987Z,14.70
2018-12-20T19:23:03.063Z,16.60
2018-12-20T19:25:34.746Z,14.80
2018-12-20T19:28:05.321Z,15.83
2018-12-20T19:30:36.719Z,17.50
2018-12-20T19:33:07.642Z,18.20
2018-12-20T19:35:39.988Z,12.87
2018-12-20T19:38:10.347Z,16.43
2018-12-20T19:40:42.773Z,20.90
2018-12-20T19:43:13.876Z,12.60
2018-12-20T19:45:46.211Z,17.27
2018-12-20T19:48:16.637Z,20.87
2018-12-20T19:50:47.299Z,15.17
2018-12-20T19:53:18.296Z,20.13
2018-12-20T19:55:48.595Z,17.50
2018-12-20T19:58:18.826Z,14.73
2018-12-20T20:00:49.804Z,21.03
2018-12-20T20:03:21.332Z,17.80
2018-12-20T20:05:51.959Z,15.47
2018-12-20T20:08:23.114Z,12.50
2018-12-20T20:10:54.151Z,15.00
2018-12-20T20:13:30.716Z,24.30
2018-12-20T20:15:57.153Z,14.93
2018-12-20T20:18:27.170Z,17.30
2018-12-20T20:20:58.833Z,14.07
2018-12-20T20:23:29.419Z,14.37
2018-12-20T20:26:00.296Z,19.17
2018-12-20T20:28:30.773Z,16.30
2018-12-20T20:31:01.998Z,12.77
2018-12-20T20:33:32.193Z,13.70
2018-12-20T20:36:04.092Z,12.77
2018-12-20T20:38:35.504Z,10.93
2018-12-20T20:41:06.176Z,12.50
2018-12-20T20:43:37.980Z,12.33
2018-12-20T20:46:09.768Z,14.93
2018-12-20T20:48:41.306Z,17.40
2018-12-20T20:51:11.958Z,11.83
2018-12-20T20:53:42.486Z,13.13
2018-12-20T20:56:13.318Z,14.20
2018-12-20T20:58:43.479Z,16.03
2018-12-20T21:01:14.213Z,11.67
2018-12-20T21:03:46.653Z,12.10
2018-12-20T21:06:18.445Z,13.53
2018-12-20T21:08:48.706Z,14.30
2018-12-20T21:11:19.052Z,15.90
2018-12-20T21:13:49.783Z,12.70
2018-12-20T21:16:19.792Z,15.63
2018-12-20T21:18:51.110Z,14.30
2018-12-20T21:21:22.058Z,12.47
2018-12-20T21:23:52.894Z,11.40
2018-12-20T21:26:23.884Z,10.13
2018-12-20T21:28:55.035Z,12.93
2018-12-20T21:31:26.038Z,12.27
2018-12-20T21:33:57.239Z,12.60
2018-12-20T21:36:28.669Z,9.63
2018-12-20T21:38:59.674Z,19.40
2018-12-20T21:41:29.757Z,22.60
2018-12-20T21:44:00.470Z,21.30
2018-12-20T21:46:30.548Z,12.50
2018-12-20T21:49:01.421Z,12.17
2018-12-20T21:51:31.652Z,18.57
2018-12-20T21:54:01.721Z,15.57
2018-12-20T21:56:32.809Z,18.03
2018-12-20T21:59:03.648Z,12.73
2018-12-20T22:01:34.271Z,14.90
2018-12-20T22:04:04.512Z,16.40
2018-12-20T22:06:34.626Z,16.07
2018-12-20T22:09:06.790Z,13.90
2018-12-20T22:11:37.153Z,11.33
2018-12-20T22:14:07.241Z,16.00
2018-12-20T22:16:38.169Z,16.83
2018-12-20T22:19:08.953Z,20.87
2018-12-20T22:21:39.071Z,20.67
2018-12-20T22:24:09.658Z,17.97
2018-12-20T22:26:40.725Z,17.37
2018-12-20T22:29:10.987Z,24.97
2018-12-20T22:31:42.869Z,19.83
2018-12-20T22:34:14.248Z,21.47
2018-12-20T22:36:44.654Z,17.03
2018-12-20T22:39:16.130Z,15.83
2018-12-20T22:41:46.147Z,13.53
2018-12-20T22:44:17.203Z,14.83
2018-12-20T22:46:47.826Z,19.27
2018-12-20T22:49:19.053Z,18.73
2018-12-20T22:51:50.526Z,23.20
2018-12-20T22:54:21.198Z,16.73
2018-12-20T22:56:51.225Z,11.83
2018-12-20T22:59:22.001Z,17.43
2018-12-20T23:01:52.776Z,12.73
2018-12-20T23:04:23.418Z,15.67
2018-12-20T23:06:54.174Z,22.57
2018-12-20T23:09:24.500Z,12.37
2018-12-20T23:11:54.670Z,11.93
2018-12-20T23:14:25.396Z,12.87
2018-12-20T23:16:57.660Z,20.37
2018-12-20T23:19:28.045Z,17.10
2018-12-20T23:21:58.654Z,13.50
2018-12-20T23:24:29.837Z,17.77
2018-12-20T23:27:02.940Z,22.23
2018-12-20T23:29:33.140Z,15.20
2018-12-20T23:32:04.021Z,13.50
2018-12-20T23:34:34.922Z,8.77
2018-12-20T23:37:06.014Z,9.10
2018-12-20T23:39:36.176Z,11.30
2018-12-20T23:42:07.480Z,8.30
2018-12-20T23:44:39.339Z,12.90
2018-12-20T23:47:10.481Z,9.03
2018-12-20T23:49:42.341Z,12.30
2018-12-20T23:52:13.389Z,10.80
2018-12-20T23:54:43.528Z,12.67
2018-12-20T23:57:14.958Z,10.27
2018-12-20T23:59:45.480Z,14.70
